createdAt,value
2022-09-28T00:01:22.001Z,17.84
2022-09-28T00:06:26.087Z,17.96
2022-09-28T00:11:29.366Z,18.34
2022-09-28T00:16:36.188Z,18.36
2022-09-28T00:21:40.046Z,18.80
2022-09-28T00:26:50.510Z,18.18
2022-09-28T00:32:02.637Z,16.59
2022-09-28T00:37:06.656Z,17.20
2022-09-28T00:42:11.718Z,17.62
2022-09-28T00:47:14.408Z,17.93
2022-09-28T00:52:25.607Z,17.95
2022-09-28T00:57:29.124Z,18.11
2022-09-28T01:02:32.265Z,18.18
2022-09-28T01:07:36.018Z,18.27
2022-09-28T01:12:38.759Z,18.45
2022-09-28T01:17:44.638Z,18.51
2022-09-28T01:23:02.587Z,18.50
2022-09-28T01:28:08.458Z,18.31
2022-09-28T01:33:14.335Z,17.94
2022-09-28T01:38:22.256Z,15.91
2022-09-28T01:43:26.855Z,16.31
2022-09-28T01:48:33.982Z,17.38
2022-09-28T01:53:39.355Z,17.41
2022-09-28T01:58:46.776Z,17.52
2022-09-28T02:03:53.571Z,17.49
2022-09-28T02:08:59.853Z,17.38
2022-09-28T02:14:05.219Z,17.38
2022-09-28T02:19:13.176Z,17.17
2022-09-28T02:24:21.588Z,16.67
2022-09-28T02:29:25.393Z,16.23
2022-09-28T02:34:28.094Z,15.94
2022-09-28T02:39:31.916Z,15.62
2022-09-28T02:44:44.859Z,15.65
2022-09-28T02:49:47.554Z,15.73
2022-09-28T02:54:50.461Z,15.84
2022-09-28T02:59:56.962Z,16.10
2022-09-28T03:05:18.292Z,16.04
2022-09-28T03:10:20.982Z,16.06
2022-09-28T03:15:30.745Z,16.17
2022-09-28T03:20:34.127Z,16.23
2022-09-28T03:25:36.867Z,16.26
2022-09-28T03:30:39.559Z,16.24
2022-09-28T03:35:42.793Z,16.09
2022-09-28T03:40:52.913Z,16.17
2022-09-28T03:45:57.115Z,16.23
2022-09-28T03:51:01.419Z,16.19
2022-09-28T03:56:08.722Z,16.22
2022-09-28T04:01:16.629Z,16.24
2022-09-28T04:06:20.093Z,16.25
2022-09-28T04:11:24.299Z,16.29
2022-09-28T04:16:27.449Z,16.30
2022-09-28T04:21:30.614Z,16.41
2022-09-28T04:26:33.312Z,16.45
2022-09-28T04:31:40.882Z,16.43
2022-09-28T04:36:45.201Z,16.57
2022-09-28T04:41:48.375Z,16.74
2022-09-28T04:46:51.072Z,16.85
2022-09-28T04:51:53.977Z,16.90
2022-09-28T04:56:57.392Z,16.99
2022-09-28T05:02:00.360Z,16.96
2022-09-28T05:07:03.202Z,16.99
2022-09-28T05:12:06.009Z,17.07
2022-09-28T05:17:10.240Z,17.17
2022-09-28T05:22:15.019Z,17.27
2022-09-28T05:27:17.680Z,17.45
2022-09-28T05:32:20.895Z,17.63
2022-09-28T05:37:23.590Z,17.74
2022-09-28T05:42:26.392Z,17.75
2022-09-28T05:47:29.499Z,17.72
2022-09-28T05:52:32.731Z,17.78
2022-09-28T05:57:35.410Z,17.77
2022-09-28T06:02:38.151Z,17.71
2022-09-28T06:07:41.121Z,17.71
2022-09-28T06:12:45.042Z,17.77
2022-09-28T06:17:48.152Z,17.80
2022-09-28T06:22:51.981Z,17.77
2022-09-28T06:27:55.706Z,17.76
2022-09-28T06:32:59.833Z,17.81
2022-09-28T06:38:02.632Z,17.73
2022-09-28T06:43:10.529Z,16.28
2022-09-28T06:48:13.667Z,14.49
2022-09-28T06:53:16.467Z,13.58
2022-09-28T06:58:20.495Z,15.53
2022-09-28T07:03:23.603Z,16.97
2022-09-28T07:08:29.070Z,17.54
2022-09-28T07:13:50.723Z,17.95
2022-09-28T07:18:54.230Z,18.11
2022-09-28T07:23:56.926Z,16.91
2022-09-28T07:28:59.643Z,14.89
2022-09-28T07:34:02.708Z,14.65
2022-09-28T07:39:05.640Z,16.68
2022-09-28T07:44:08.440Z,17.59
2022-09-28T07:49:12.484Z,16.61
2022-09-28T07:54:15.373Z,14.70
2022-09-28T07:59:18.944Z,16.01
2022-09-28T08:04:21.796Z,17.04
2022-09-28T08:09:24.497Z,17.34
2022-09-28T08:14:27.815Z,17.35
2022-09-28T08:19:50.477Z,16.63
2022-09-28T08:24:53.277Z,15.24
2022-09-28T08:29:56.117Z,16.41
2022-09-28T08:34:59.904Z,17.16
2022-09-28T08:40:02.719Z,17.77
2022-09-28T08:45:27.122Z,16.95
2022-09-28T08:50:31.864Z,15.93
2022-09-28T08:55:37.929Z,17.11
2022-09-28T09:00:40.643Z,17.27
2022-09-28T09:05:52.353Z,17.71
2022-09-28T09:11:17.884Z,16.75
2022-09-28T09:16:20.616Z,17.60
2022-09-28T09:21:43.070Z,18.62
2022-09-28T09:26:45.951Z,17.64
2022-09-28T09:31:51.418Z,17.46
2022-09-28T09:37:08.557Z,18.12
2022-09-28T09:42:28.352Z,18.01
2022-09-28T09:47:35.558Z,18.05
2022-09-28T09:52:44.447Z,20.12
2022-09-28T09:57:51.809Z,22.70
2022-09-28T10:02:55.270Z,23.26
2022-09-28T10:08:10.623Z,22.98
2022-09-28T10:13:13.836Z,21.06
2022-09-28T10:18:19.401Z,19.31
2022-09-28T10:23:27.460Z,17.89
2022-09-28T10:28:35.757Z,16.92
2022-09-28T10:33:39.171Z,16.80
2022-09-28T10:38:47.815Z,19.14
2022-09-28T10:44:07.345Z,18.91
2022-09-28T10:49:17.890Z,17.49
2022-09-28T10:54:22.026Z,16.47
2022-09-28T10:59:31.389Z,16.12
2022-09-28T11:04:38.787Z,16.13
2022-09-28T11:09:45.149Z,17.49
2022-09-28T11:14:52.998Z,19.64
2022-09-28T11:19:56.925Z,17.97
2022-09-28T11:25:13.240Z,16.39
2022-09-28T11:30:23.492Z,15.33
2022-09-28T11:35:44.543Z,14.75
2022-09-28T11:40:53.541Z,14.48
2022-09-28T11:46:11.519Z,16.18
2022-09-28T11:51:24.897Z,17.84
2022-09-28T11:56:39.374Z,17.21
2022-09-28T12:01:58.955Z,17.95
2022-09-28T12:07:08.631Z,20.46
2022-09-28T12:12:22.602Z,21.22
2022-09-28T12:17:29.823Z,22.50
2022-09-28T12:22:35.167Z,24.78
2022-09-28T12:27:41.342Z,25.90
2022-09-28T12:32:46.813Z,26.36
2022-09-28T12:37:53.909Z,24.69
2022-09-28T12:43:03.572Z,22.60
2022-09-28T12:48:17.330Z,22.23
2022-09-28T12:53:25.996Z,22.32
2022-09-28T12:58:38.199Z,23.31
2022-09-28T13:03:52.464Z,24.81
2022-09-28T13:09:14.254Z,24.30
2022-09-28T13:14:19.879Z,22.58
2022-09-28T13:19:37.836Z,20.91
2022-09-28T13:24:44.529Z,19.69
2022-09-28T13:29:49.380Z,19.47
2022-09-28T13:34:52.695Z,18.76
2022-09-28T13:39:57.037Z,17.81
2022-09-28T13:45:20.211Z,16.92
2022-09-28T13:50:29.358Z,16.62
2022-09-28T13:55:40.865Z,18.60
2022-09-28T14:00:51.448Z,19.40
2022-09-28T14:06:00.803Z,19.59
2022-09-28T14:11:25.130Z,21.55
2022-09-28T14:16:31.290Z,22.29
2022-09-28T14:21:46.378Z,20.33
2022-09-28T14:27:01.364Z,18.43
2022-09-28T14:32:16.662Z,17.46
2022-09-28T14:37:39.839Z,17.60
2022-09-28T14:43:02.508Z,20.05
2022-09-28T14:48:05.341Z,20.81
2022-09-28T14:53:13.699Z,19.56
2022-09-28T14:58:22.585Z,19.47
2022-09-28T15:03:27.301Z,19.77
2022-09-28T15:08:37.712Z,19.74
2022-09-28T15:13:40.926Z,20.17
2022-09-28T15:19:02.589Z,21.15
2022-09-28T15:24:40.363Z,20.63
2022-09-28T15:29:54.257Z,20.13
2022-09-28T15:34:57.288Z,18.75
2022-09-28T15:40:00.674Z,18.39
2022-09-28T15:45:07.955Z,18.46
2022-09-28T15:50:21.639Z,17.88
2022-09-28T15:55:33.042Z,16.69
2022-09-28T16:00:36.048Z,15.63
2022-09-28T16:05:52.776Z,14.84
2022-09-28T16:11:11.147Z,14.25
2022-09-28T16:16:17.068Z,13.70
2022-09-28T16:21:19.924Z,13.19
2022-09-28T16:26:29.343Z,13.89
2022-09-28T16:31:34.752Z,16.29
2022-09-28T16:36:43.689Z,17.44
2022-09-28T16:41:52.216Z,16.27
2022-09-28T16:46:57.177Z,14.86
2022-09-28T16:52:00.591Z,13.91
2022-09-28T16:57:04.726Z,13.24
2022-09-28T17:02:45.016Z,12.75
2022-09-28T17:07:44.985Z,12.97
2022-09-28T17:12:47.950Z,15.36
2022-09-28T17:17:51.466Z,16.53
2022-09-28T17:22:54.276Z,16.87
2022-09-28T17:27:58.133Z,15.41
2022-09-28T17:33:01.814Z,13.96
2022-09-28T17:38:04.519Z,13.54
2022-09-28T17:43:07.626Z,15.10
2022-09-28T17:48:15.960Z,16.00
2022-09-28T17:53:18.655Z,15.68
2022-09-28T17:58:22.687Z,14.04
2022-09-28T18:03:25.900Z,13.50
2022-09-28T18:08:29.414Z,15.54
2022-09-28T18:13:32.117Z,16.01
2022-09-28T18:18:38.500Z,14.12
2022-09-28T18:23:41.201Z,12.90
2022-09-28T18:28:43.902Z,14.22
2022-09-28T18:33:48.446Z,15.80
2022-09-28T18:38:51.231Z,15.11
2022-09-28T18:44:00.623Z,13.63
2022-09-28T18:49:06.164Z,14.83
2022-09-28T18:54:08.972Z,15.70
2022-09-28T18:59:12.630Z,15.11
2022-09-28T19:04:15.904Z,13.91
2022-09-28T19:09:20.519Z,15.05
2022-09-28T19:14:23.298Z,15.63
2022-09-28T19:19:26.051Z,16.10
2022-09-28T19:24:29.263Z,15.54
2022-09-28T19:29:31.963Z,13.85
2022-09-28T19:34:34.762Z,12.83
2022-09-28T19:39:37.462Z,12.87
2022-09-28T19:44:40.162Z,14.62
2022-09-28T19:49:42.803Z,15.62
2022-09-28T19:54:55.899Z,16.11
2022-09-28T20:00:02.705Z,16.22
2022-09-28T20:05:07.611Z,14.39
2022-09-28T20:10:12.040Z,13.72
2022-09-28T20:15:14.888Z,15.33
2022-09-28T20:20:18.412Z,14.94
2022-09-28T20:25:21.829Z,13.78
2022-09-28T20:30:24.525Z,14.38
2022-09-28T20:35:32.902Z,14.42
2022-09-28T20:40:37.960Z,14.65
2022-09-28T20:45:40.924Z,14.62
2022-09-28T20:50:43.617Z,14.48
